< < Back
Terminal Aerodrome Forecast


Current Version              Previous Versions:   1  2  3  4  5  6  7  8  9  

Terminal Aerodrome Forecast

908
FTUS42 KFFC 010339 AAB
TAFATL
TAF AMD
KATL 010339Z 0104/0206 33008KT P6SM SCT080
     FM011600 05006KT P6SM FEW040
     FM012200 02008KT P6SM FEW250
     FM020300 35009KT P6SM SKC=

Latest METAR

876
SAUS70 KWBC 011000 RRR
MTRATL
METAR KATL 010952Z 00000KT 10SM FEW250 23/17 A2994 RMK AO2 SLP127
T02330167


USA.gov is the U.S. government's official web portal to all federal, state and local government web resources and services.